Time;durP1;ratioP1;P1;durP2;ratioP2;P2;SDS_P1;SDS_P2;PMS_P1;PMS_P2;Temp;Humidity;BMP_temperature;BMP_pressure;BME280_temperature;BME280_humidity;BME280_pressure;Samples;Min_cycle;Max_cycle;Signal;HPM_P1;HPM_P2
2021/01/19 00:00:44;;;;;;;0.45;0.45;;;16.40;63.80;;;;;;4197728;28;20552;-43
2021/01/19 00:03:05;;;;;;;0.47;0.47;;;16.30;62.90;;;;;;4198010;28;20139;-41
2021/01/19 00:05:26;;;;;;;0.00;0.00;;;16.40;62.80;;;;;;4198013;28;20135;-41
2021/01/19 00:07:46;;;;;;;0.52;0.52;;;16.40;62.70;;;;;;4197763;28;20495;-40
2021/01/19 00:10:07;;;;;;;0.00;0.00;;;16.40;62.60;;;;;;4198195;28;20064;-41
2021/01/19 00:12:29;;;;;;;0.00;0.00;;;16.40;62.60;;;;;;4198518;28;20056;-41
2021/01/19 00:14:50;;;;;;;;;;;16.40;62.60;;;;;;4198243;28;20505;-41
2021/01/19 00:17:12;;;;;;;0.00;0.00;;;16.40;62.70;;;;;;4181639;28;20011;-41
2021/01/19 00:19:33;;;;;;;;;;;16.30;62.80;;;;;;4181689;28;20498;-41
2021/01/19 00:21:54;;;;;;;0.17;0.17;;;16.30;62.90;;;;;;4181302;28;19924;-40
2021/01/19 00:24:15;;;;;;;0.35;0.35;;;16.30;62.80;;;;;;4181541;28;20510;-40
2021/01/19 00:26:37;;;;;;;0.00;0.00;;;16.40;62.50;;;;;;4193408;28;20052;-44
2021/01/19 00:28:58;;;;;;;0.00;0.00;;;16.40;62.40;;;;;;4197710;28;20061;-41
2021/01/19 00:31:19;;;;;;;0.32;0.32;;;16.40;62.50;;;;;;4197817;28;20053;-41
2021/01/19 00:33:40;;;;;;;0.00;0.00;;;16.40;62.50;;;;;;4197577;28;20066;-40
2021/01/19 00:36:01;;;;;;;0.05;0.05;;;16.30;62.50;;;;;;4197628;28;20499;-41
2021/01/19 00:38:22;;;;;;;0.50;0.50;;;16.30;62.60;;;;;;4182022;28;20052;-41
2021/01/19 00:40:43;;;;;;;0.98;0.98;;;16.30;62.80;;;;;;4197474;28;20056;-41
2021/01/19 00:43:03;;;;;;;0.00;0.00;;;16.20;62.90;;;;;;4197768;28;20221;-41
2021/01/19 00:45:25;;;;;;;0.10;0.10;;;16.10;63.20;;;;;;4197013;28;20048;-40
2021/01/19 00:47:46;;;;;;;0.00;0.00;;;16.10;63.20;;;;;;4197358;28;20106;-40
2021/01/19 00:50:07;;;;;;;1.27;1.27;;;16.30;62.90;;;;;;4197453;28;20052;-41
2021/01/19 00:52:28;;;;;;;0.55;0.55;;;16.40;62.40;;;;;;4196206;28;20067;-40
2021/01/19 00:54:50;;;;;;;0.25;0.25;;;16.60;61.90;;;;;;4179681;28;20084;-40
2021/01/19 00:57:11;;;;;;;0.55;0.55;;;16.70;61.40;;;;;;4180568;28;20171;-41
2021/01/19 00:59:35;;;;;;;0.00;0.00;;;16.80;60.90;;;;;;4180289;28;20434;-41
2021/01/19 01:01:57;;;;;;;0.05;0.05;;;16.90;60.50;;;;;;4197187;28;20140;-41
2021/01/19 01:04:18;;;;;;;0.30;0.30;;;16.90;60.30;;;;;;4197269;28;20080;-42
2021/01/19 01:06:39;;;;;;;0.20;0.20;;;16.90;60.40;;;;;;4195047;28;20047;-40
2021/01/19 01:09:00;;;;;;;0.22;0.22;;;16.90;60.60;;;;;;4197198;28;20052;-40
2021/01/19 01:11:20;;;;;;;0.10;0.10;;;16.80;60.80;;;;;;4196788;28;20052;-41
2021/01/19 01:13:41;;;;;;;0.10;0.10;;;16.90;61.00;;;;;;4197287;28;20068;-41
2021/01/19 01:16:07;;;;;;;0.80;0.80;;;17.00;60.40;;;;;;4196731;28;20734;-42
2021/01/19 01:18:30;;;;;;;0.00;0.00;;;17.20;59.90;;;;;;4197134;28;20056;-41
2021/01/19 01:20:51;;;;;;;0.75;0.75;;;17.30;59.60;;;;;;4196537;28;20048;-42
2021/01/19 01:23:14;;;;;;;0.20;0.20;;;17.30;59.60;;;;;;4197337;28;20067;-41
2021/01/19 01:25:35;;;;;;;0.00;0.00;;;17.20;59.60;;;;;;4196733;28;20121;-41
2021/01/19 01:27:56;;;;;;;0.22;0.22;;;17.10;59.70;;;;;;4196860;28;20049;-41
2021/01/19 01:30:18;;;;;;;0.35;0.35;;;17.00;60.00;;;;;;4196853;28;20410;-41
2021/01/19 01:32:39;;;;;;;0.00;0.00;;;16.90;60.40;;;;;;4196690;28;20441;-40
2021/01/19 01:35:01;;;;;;;0.10;0.10;;;16.90;60.70;;;;;;4196846;28;20048;-42
2021/01/19 01:37:22;;;;;;;0.00;0.00;;;16.90;60.50;;;;;;4196347;28;20053;-40
2021/01/19 01:39:43;;;;;;;0.00;0.00;;;17.10;60.20;;;;;;4196009;28;20060;-40
2021/01/19 01:42:04;;;;;;;1.20;1.13;;;17.10;59.90;;;;;;4196564;28;20524;-41
2021/01/19 01:44:25;;;;;;;0.20;0.20;;;17.10;59.90;;;;;;4196382;28;20059;-40
2021/01/19 01:46:46;;;;;;;0.40;0.40;;;17.00;60.10;;;;;;4180315;28;20045;-40
2021/01/19 01:49:07;;;;;;;0.47;0.47;;;16.90;60.30;;;;;;4192275;28;20565;-41
2021/01/19 01:51:30;;;;;;;0.00;0.00;;;16.90;60.60;;;;;;4196888;28;20060;-41
2021/01/19 01:53:51;;;;;;;10.23;1.75;;;16.90;60.60;;;;;;4196646;28;20080;-41
2021/01/19 01:56:12;;;;;;;0.00;0.00;;;17.00;60.30;;;;;;4196314;28;20060;-41
2021/01/19 01:58:35;;;;;;;0.00;0.00;;;17.00;60.30;;;;;;4196168;28;20048;-41
2021/01/19 02:00:56;;;;;;;0.10;0.10;;;17.00;60.40;;;;;;4195630;28;20574;-41
2021/01/19 02:03:18;;;;;;;0.05;0.05;;;16.90;60.30;;;;;;4196155;28;20106;-42
2021/01/19 02:05:39;;;;;;;1.45;1.17;;;16.90;60.40;;;;;;4196057;28;20603;-41
2021/01/19 02:08:10;;;;;;;0.08;0.08;;;16.90;60.60;;;;;;4195827;28;20129;-41
2021/01/19 02:10:37;;;;;;;0.00;0.00;;;16.80;60.70;;;;;;4195865;28;20643;-45
2021/01/19 02:13:06;;;;;;;0.70;0.70;;;16.70;60.90;;;;;;4195949;28;21039;-40
2021/01/19 02:15:34;;;;;;;0.00;0.00;;;16.70;61.40;;;;;;4195678;28;20059;-43
2021/01/19 02:18:08;;;;;;;0.20;0.20;;;16.60;61.50;;;;;;4179423;28;20498;-42
2021/01/19 02:20:47;;;;;;;0.00;0.00;;;16.60;61.50;;;;;;4179329;28;20094;-43
2021/01/19 02:23:25;;;;;;;0.00;0.00;;;16.70;61.10;;;;;;4179270;28;20071;-40
2021/01/19 02:26:14;;;;;;;0.10;0.10;;;16.90;60.60;;;;;;4190510;28;20048;-40
2021/01/19 02:28:41;;;;;;;0.15;0.15;;;17.10;59.80;;;;;;4195259;28;20045;-41
2021/01/19 02:31:19;;;;;;;0.10;0.10;;;17.20;59.50;;;;;;4196224;28;20052;-40
2021/01/19 02:33:54;;;;;;;0.00;0.00;;;17.30;59.40;;;;;;4196017;28;20041;-41
2021/01/19 02:36:21;;;;;;;0.13;0.13;;;17.20;59.30;;;;;;4195715;28;20052;-41
2021/01/19 02:38:53;;;;;;;0.00;0.00;;;17.20;59.40;;;;;;4196240;28;20060;-41
2021/01/19 02:41:17;;;;;;;0.95;0.95;;;17.20;59.30;;;;;;4195985;28;20189;-41
2021/01/19 02:43:40;;;;;;;0.00;0.00;;;17.20;59.30;;;;;;4195520;28;20472;-41
2021/01/19 02:46:01;;;;;;;0.13;0.13;;;17.20;59.30;;;;;;4195257;28;20506;-41
2021/01/19 02:48:22;;;;;;;1.00;1.00;;;17.10;59.60;;;;;;4195547;28;20136;-43
2021/01/19 02:50:44;;;;;;;0.20;0.20;;;17.00;59.80;;;;;;4195538;28;20137;-40
2021/01/19 02:53:06;;;;;;;0.00;0.00;;;17.00;60.00;;;;;;4195096;28;20059;-42
2021/01/19 02:55:28;;;;;;;0.15;0.15;;;17.10;60.50;;;;;;4195567;28;20407;-41
2021/01/19 02:58:04;;;;;;;0.00;0.00;;;17.30;59.20;;;;;;4195330;28;20059;-41
2021/01/19 03:00:30;;;;;;;0.00;0.00;;;17.40;59.00;;;;;;4195169;28;20072;-42
2021/01/19 03:02:53;;;;;;;0.00;0.00;;;17.30;58.90;;;;;;4195287;28;20060;-41
2021/01/19 03:05:15;;;;;;;0.30;0.30;;;17.30;59.00;;;;;;4178837;28;20048;-41
2021/01/19 03:07:41;;;;;;;0.10;0.10;;;17.20;59.20;;;;;;4178928;28;20068;-43
2021/01/19 03:10:05;;;;;;;0.10;0.10;;;17.20;59.40;;;;;;4178928;28;20736;-42
2021/01/19 03:12:26;;;;;;;0.75;0.75;;;17.10;59.60;;;;;;4181649;28;20098;-44
2021/01/19 03:14:47;;;;;;;0.00;0.00;;;16.90;59.90;;;;;;4196490;28;20072;-43
2021/01/19 03:17:10;;;;;;;0.00;0.00;;;16.80;60.30;;;;;;4199057;28;20056;-42
2021/01/19 03:19:35;;;;;;;0.40;0.40;;;16.80;60.80;;;;;;4198625;28;20514;-42
2021/01/19 03:21:56;;;;;;;0.05;0.05;;;16.70;61.10;;;;;;4198804;28;20059;-43
2021/01/19 03:24:18;;;;;;;0.00;0.00;;;16.70;61.20;;;;;;4198465;28;20479;-43
2021/01/19 03:26:39;;;;;;;;;;;16.80;61.00;;;;;;4199448;28;20063;-42
2021/01/19 03:29:00;;;;;;;0.40;0.40;;;16.90;60.60;;;;;;4198946;28;19929;-41
2021/01/19 03:31:20;;;;;;;0.00;0.00;;;17.00;60.10;;;;;;4198838;28;20079;-40
2021/01/19 03:33:41;;;;;;;1.90;0.87;;;17.10;59.70;;;;;;4198217;28;20481;-42
2021/01/19 03:36:02;;;;;;;0.00;0.00;;;17.20;59.40;;;;;;4198402;28;20356;-41
2021/01/19 03:38:23;;;;;;;0.55;0.55;;;17.30;59.20;;;;;;4198689;28;20044;-40
2021/01/19 03:40:44;;;;;;;0.00;0.00;;;17.30;59.20;;;;;;4198688;28;20127;-42
2021/01/19 03:43:06;;;;;;;0.25;0.25;;;17.40;59.10;;;;;;4198088;28;20813;-40
2021/01/19 03:45:27;;;;;;;0.10;0.10;;;17.60;58.70;;;;;;4197943;28;20052;-41
2021/01/19 03:47:48;;;;;;;0.85;0.85;;;17.80;58.00;;;;;;4198723;28;20056;-41
2021/01/19 03:50:11;;;;;;;0.32;0.32;;;17.90;57.60;;;;;;4198610;28;20501;-41
2021/01/19 03:52:32;;;;;;;0.20;0.20;;;17.90;57.50;;;;;;4198312;28;20059;-41
2021/01/19 03:54:52;;;;;;;0.00;0.00;;;17.80;57.70;;;;;;4197295;28;20056;-40
2021/01/19 03:57:14;;;;;;;0.30;0.30;;;17.70;57.90;;;;;;4198587;28;20080;-41
2021/01/19 03:59:35;;;;;;;0.10;0.10;;;17.60;58.60;;;;;;4196944;28;20053;-42
2021/01/19 04:01:56;;;;;;;0.15;0.15;;;17.50;58.80;;;;;;4196715;28;20056;-41
2021/01/19 04:04:17;;;;;;;0.70;0.70;;;17.30;59.00;;;;;;4197763;28;20053;-41
2021/01/19 04:06:38;;;;;;;0.00;0.00;;;17.30;59.10;;;;;;4198281;28;20048;-42
2021/01/19 04:08:59;;;;;;;;;;;17.40;59.00;;;;;;4198511;28;20481;-41
2021/01/19 04:11:20;;;;;;;0.10;0.10;;;17.50;58.70;;;;;;4198527;28;19967;-44
2021/01/19 04:13:42;;;;;;;0.00;0.00;;;17.50;58.40;;;;;;4197657;28;20048;-41
2021/01/19 04:16:03;;;;;;;0.00;0.00;;;17.60;58.50;;;;;;4195078;28;20048;-41
2021/01/19 04:18:24;;;;;;;0.00;0.00;;;17.50;58.70;;;;;;4198241;28;20075;-41
2021/01/19 04:20:45;;;;;;;0.00;0.00;;;17.30;59.00;;;;;;4198021;28;20057;-40
2021/01/19 04:23:06;;;;;;;0.63;0.63;;;17.30;59.20;;;;;;4196807;28;20052;-41
2021/01/19 04:25:27;;;;;;;0.15;0.15;;;17.30;59.20;;;;;;4181378;28;20080;-40
2021/01/19 04:27:48;;;;;;;0.00;0.00;;;17.20;59.30;;;;;;4181657;28;20061;-41
2021/01/19 04:30:10;;;;;;;0.38;0.38;;;17.10;59.60;;;;;;4193576;28;20691;-40
2021/01/19 04:32:32;;;;;;;0.10;0.10;;;17.10;59.70;;;;;;4197676;28;20414;-40
2021/01/19 04:34:53;;;;;;;0.47;0.47;;;17.20;59.40;;;;;;4197689;28;20565;-41
2021/01/19 04:37:13;;;;;;;0.00;0.00;;;17.40;58.90;;;;;;4197267;28;20190;-43
2021/01/19 04:39:35;;;;;;;0.00;0.00;;;17.50;58.50;;;;;;4197934;28;20139;-40
2021/01/19 04:41:56;;;;;;;0.00;0.00;;;17.60;58.40;;;;;;4197531;28;20123;-40
2021/01/19 04:44:18;;;;;;;0.20;0.20;;;17.60;58.40;;;;;;4197298;28;20064;-40
2021/01/19 04:46:40;;;;;;;2.10;1.55;;;17.70;58.30;;;;;;4197413;28;20086;-41
2021/01/19 04:49:03;;;;;;;0.00;0.00;;;17.60;58.20;;;;;;4197544;28;20106;-41
2021/01/19 04:51:26;;;;;;;0.00;0.00;;;17.60;58.50;;;;;;4197852;28;20059;-41
2021/01/19 04:53:57;;;;;;;1.20;1.10;;;17.50;58.70;;;;;;4180501;28;20517;-41
2021/01/19 04:56:24;;;;;;;0.00;0.00;;;17.40;58.90;;;;;;4180668;28;20049;-40
2021/01/19 04:58:49;;;;;;;0.35;0.35;;;17.40;59.00;;;;;;4185526;28;20052;-40
2021/01/19 05:01:20;;;;;;;0.10;0.10;;;17.30;59.10;;;;;;4195930;28;20060;-41
2021/01/19 05:03:43;;;;;;;0.00;0.00;;;17.20;59.30;;;;;;4197174;28;20649;-41
2021/01/19 05:06:14;;;;;;;0.00;0.00;;;17.10;59.70;;;;;;4197677;28;20135;-41
2021/01/19 05:08:55;;;;;;;0.20;0.20;;;17.00;60.00;;;;;;4197176;28;20075;-41
2021/01/19 05:11:22;;;;;;;0.10;0.10;;;16.90;60.40;;;;;;4196974;28;20287;-40
2021/01/19 05:13:52;;;;;;;0.10;0.10;;;16.90;60.20;;;;;;4197285;28;20572;-40
2021/01/19 05:16:15;;;;;;;0.10;0.10;;;17.10;59.80;;;;;;4181618;28;20053;-40
2021/01/19 05:18:38;;;;;;;0.13;0.13;;;17.20;59.40;;;;;;4197039;28;20056;-41
2021/01/19 05:21:01;;;;;;;0.03;0.03;;;17.30;59.20;;;;;;4196840;28;20056;-40
2021/01/19 05:23:22;;;;;;;0.00;0.00;;;17.30;59.00;;;;;;4196731;28;20469;-41
2021/01/19 05:25:43;;;;;;;0.00;0.00;;;17.50;58.80;;;;;;4196689;28;20094;-41
2021/01/19 05:28:05;;;;;;;;;;;17.60;58.40;;;;;;4197175;28;20422;-41
2021/01/19 05:30:26;;;;;;;0.17;0.17;;;17.70;58.10;;;;;;4180485;28;19921;-41
2021/01/19 05:32:47;;;;;;;0.10;0.10;;;17.70;58.10;;;;;;4180284;28;20057;-42
2021/01/19 05:35:13;;;;;;;0.00;0.00;;;17.60;58.30;;;;;;4179924;28;20427;-41
2021/01/19 05:37:36;;;;;;;0.10;0.10;;;17.50;58.60;;;;;;4180165;28;20056;-41
2021/01/19 05:40:03;;;;;;;0.10;0.10;;;17.30;58.90;;;;;;4194878;28;20052;-41
2021/01/19 05:42:24;;;;;;;0.45;0.45;;;17.40;59.00;;;;;;4196625;28;20064;-41
2021/01/19 05:44:45;;;;;;;0.20;0.20;;;17.50;58.80;;;;;;4196027;28;20045;-41
2021/01/19 05:47:07;;;;;;;0.08;0.08;;;17.50;58.50;;;;;;4196507;28;20135;-41
2021/01/19 05:49:31;;;;;;;0.22;0.20;;;17.70;58.20;;;;;;4196291;28;20494;-43
2021/01/19 05:51:55;;;;;;;0.20;0.20;;;17.70;58.10;;;;;;4196499;28;20524;-39
2021/01/19 05:54:29;;;;;;;0.10;0.10;;;17.70;58.10;;;;;;4196084;28;20472;-41
2021/01/19 05:56:51;;;;;;;0.00;0.00;;;17.80;57.90;;;;;;4196396;28;20052;-41
2021/01/19 05:59:23;;;;;;;0.00;0.00;;;17.80;57.80;;;;;;4195849;28;20162;-41
2021/01/19 06:01:46;;;;;;;1.25;0.98;;;17.80;57.80;;;;;;4196109;28;20517;-43
2021/01/19 06:04:07;;;;;;;0.10;0.10;;;17.70;58.00;;;;;;4196220;28;20124;-45
2021/01/19 06:06:30;;;;;;;0.00;0.00;;;17.60;58.30;;;;;;4196473;28;20075;-41
2021/01/19 06:09:00;;;;;;;0.13;0.13;;;17.50;58.50;;;;;;4195737;28;20052;-41
2021/01/19 06:11:22;;;;;;;0.13;0.13;;;17.40;58.70;;;;;;4196325;28;20123;-41
2021/01/19 06:13:43;;;;;;;0.30;0.30;;;17.40;59.00;;;;;;4196215;28;20048;-41
2021/01/19 06:16:08;;;;;;;0.00;0.00;;;17.40;58.90;;;;;;4194503;28;20057;-41
2021/01/19 06:18:36;;;;;;;0.00;0.00;;;17.30;58.90;;;;;;4186547;28;20048;-41
2021/01/19 06:20:57;;;;;;;0.00;0.00;;;17.30;59.10;;;;;;4196406;28;20063;-41
2021/01/19 06:23:18;;;;;;;0.00;0.00;;;17.20;59.30;;;;;;4196077;28;20740;-41
2021/01/19 06:25:39;;;;;;;0.10;0.10;;;17.10;59.50;;;;;;4196052;28;20400;-42
2021/01/19 06:28:08;;;;;;;0.38;0.38;;;17.10;59.70;;;;;;4195571;28;20048;-41
2021/01/19 06:30:29;;;;;;;0.00;0.00;;;17.00;59.90;;;;;;4195945;28;20471;-41
2021/01/19 06:32:50;;;;;;;0.10;0.10;;;16.90;60.20;;;;;;4196336;28;20052;-42
2021/01/19 06:35:13;;;;;;;0.00;0.00;;;16.80;60.40;;;;;;4195855;28;20139;-41
2021/01/19 06:37:35;;;;;;;0.00;0.00;;;16.90;60.30;;;;;;4195357;28;20066;-41
2021/01/19 06:39:57;;;;;;;0.00;0.00;;;17.00;59.80;;;;;;4195995;28;20052;-41
2021/01/19 06:42:22;;;;;;;0.00;0.00;;;17.20;59.40;;;;;;4195682;28;20055;-41
2021/01/19 06:44:48;;;;;;;0.00;0.00;;;17.30;59.20;;;;;;4186039;28;20056;-43
2021/01/19 06:47:09;;;;;;;0.00;0.00;;;17.40;58.90;;;;;;4195138;28;20136;-41
2021/01/19 06:49:47;;;;;;;0.00;0.00;;;17.50;58.50;;;;;;4195740;28;20506;-40
2021/01/19 06:52:11;;;;;;;0.00;0.00;;;17.70;58.10;;;;;;4195908;28;20118;-41
2021/01/19 06:54:58;;;;;;;0.00;0.00;;;17.70;57.90;;;;;;4194562;28;20080;-41
2021/01/19 06:57:53;;;;;;;0.03;0.03;;;17.60;57.90;;;;;;4195591;28;20529;-40
2021/01/19 07:00:20;;;;;;;0.60;0.22;;;17.60;57.90;;;;;;4188546;28;20055;-41
2021/01/19 07:02:41;;;;;;;0.55;0.30;;;17.50;58.10;;;;;;4195557;28;20052;-41
2021/01/19 07:05:10;;;;;;;0.00;0.00;;;17.50;58.40;;;;;;4192911;28;20044;-40
2021/01/19 07:07:39;;;;;;;0.00;0.00;;;17.70;58.40;;;;;;4195402;28;20526;-41
2021/01/19 07:10:07;;;;;;;0.00;0.00;;;17.90;57.70;;;;;;4195743;28;20053;-41
2021/01/19 07:12:58;;;;;;;0.00;0.00;;;17.90;57.30;;;;;;4192150;28;20550;-41
2021/01/19 07:15:22;;;;;;;0.00;0.00;;;18.00;57.40;;;;;;4195391;28;20074;-41
2021/01/19 07:18:13;;;;;;;0.00;0.00;;;17.80;57.50;;;;;;4195322;28;20056;-41
2021/01/19 07:20:48;;;;;;;0.15;0.10;;;17.70;57.80;;;;;;4179129;28;20106;-41
2021/01/19 07:23:22;;;;;;;0.00;0.00;;;17.60;58.20;;;;;;4179059;28;20557;-40
2021/01/19 07:25:43;;;;;;;0.17;0.17;;;17.50;58.30;;;;;;4193846;28;20048;-41
2021/01/19 07:28:04;;;;;;;3.75;1.00;;;17.60;58.00;;;;;;4195092;28;20060;-41
2021/01/19 07:30:26;;;;;;;0.00;0.00;;;17.70;57.80;;;;;;4181157;28;20103;-41
2021/01/19 07:32:50;;;;;;;0.00;0.00;;;17.70;57.80;;;;;;4184409;28;20052;-40
2021/01/19 07:35:14;;;;;;;0.00;0.00;;;17.70;57.90;;;;;;4195059;28;20061;-40
2021/01/19 07:37:36;;;;;;;0.00;0.00;;;17.60;58.00;;;;;;4194890;28;20137;-41
2021/01/19 07:39:57;;;;;;;0.00;0.00;;;17.50;58.20;;;;;;4194623;28;20422;-41
2021/01/19 07:42:19;;;;;;;0.60;0.55;;;17.40;58.50;;;;;;4194875;28;20044;-40
2021/01/19 07:44:42;;;;;;;0.43;0.43;;;17.30;58.80;;;;;;4195308;28;20135;-41
2021/01/19 07:47:12;;;;;;;0.00;0.00;;;17.30;58.70;;;;;;4194399;28;20482;-41
2021/01/19 07:49:33;;;;;;;0.68;0.68;;;17.50;58.40;;;;;;4194634;28;20202;-42
2021/01/19 07:51:54;;;;;;;0.00;0.00;;;17.60;58.00;;;;;;4194879;28;20072;-42
2021/01/19 07:54:27;;;;;;;0.00;0.00;;;17.70;57.70;;;;;;4195215;28;20083;-41
2021/01/19 07:56:49;;;;;;;0.00;0.00;;;17.80;57.60;;;;;;4195143;28;20045;-41
2021/01/19 07:59:18;;;;;;;0.00;0.00;;;17.90;57.30;;;;;;4197537;28;20049;-40
2021/01/19 08:01:40;;;;;;;0.00;0.00;;;18.10;56.60;;;;;;4198362;28;20555;-42
2021/01/19 08:04:10;;;;;;;0.00;0.00;;;18.30;56.20;;;;;;4197505;28;20127;-41
2021/01/19 08:06:32;;;;;;;0.10;0.10;;;18.30;56.20;;;;;;4198174;28;20056;-41
2021/01/19 08:08:53;;;;;;;0.00;0.00;;;18.20;56.30;;;;;;4197833;28;20044;-41
2021/01/19 08:11:20;;;;;;;0.00;0.00;;;18.20;56.30;;;;;;4188053;28;20422;-40
2021/01/19 08:13:58;;;;;;;0.00;0.00;;;18.10;56.30;;;;;;4197794;28;20498;-41
2021/01/19 08:16:27;;;;;;;0.08;0.08;;;18.00;56.70;;;;;;4197167;28;20107;-41
2021/01/19 08:18:58;;;;;;;0.10;0.10;;;17.90;57.10;;;;;;4197708;28;20048;-43
2021/01/19 08:21:21;;;;;;;15.82;1.85;;;17.90;57.30;;;;;;4197929;28;20089;-41
2021/01/19 08:23:42;;;;;;;0.00;0.00;;;17.90;57.90;;;;;;4181481;28;20057;-40
2021/01/19 08:26:04;;;;;;;0.00;0.00;;;17.90;58.10;;;;;;4181460;28;20056;-40
2021/01/19 08:28:26;;;;;;;0.00;0.00;;;17.90;58.20;;;;;;4192050;28;20049;-41
2021/01/19 08:30:47;;;;;;;0.73;0.52;;;17.80;58.60;;;;;;4197570;28;20044;-42
2021/01/19 08:33:08;;;;;;;1.45;0.75;;;17.70;58.90;;;;;;4197687;28;20052;-41
2021/01/19 08:35:30;;;;;;;;;;;17.60;59.30;;;;;;4198312;28;20059;-41
2021/01/19 08:37:54;;;;;;;0.00;0.00;;;17.50;59.70;;;;;;4197447;28;19931;-41
2021/01/19 08:40:21;;;;;;;0.15;0.15;;;17.50;60.20;;;;;;4197570;28;20059;-41
2021/01/19 08:42:42;;;;;;;0.00;0.00;;;17.60;59.90;;;;;;4185899;28;20058;-41
2021/01/19 08:45:04;;;;;;;0.10;0.10;;;17.70;59.60;;;;;;4197626;28;20060;-41
2021/01/19 08:47:27;;;;;;;0.00;0.00;;;17.80;59.40;;;;;;4197161;28;20494;-40
2021/01/19 08:50:04;;;;;;;0.45;0.32;;;18.00;59.10;;;;;;4197657;28;20064;-40
2021/01/19 08:52:27;;;;;;;0.00;0.00;;;18.00;59.00;;;;;;4197388;28;20094;-41
2021/01/19 08:54:49;;;;;;;0.10;0.10;;;18.20;58.70;;;;;;4197475;28;20577;-40
2021/01/19 08:57:19;;;;;;;9.32;1.75;;;18.30;58.30;;;;;;4195952;28;20414;-40
2021/01/19 09:00:00;;;;;;;0.00;0.00;;;18.50;57.90;;;;;;4193164;28;20802;-41
2021/01/19 09:02:30;;;;;;;0.00;0.00;;;18.70;57.60;;;;;;4191603;28;20044;-41
2021/01/19 09:04:51;;;;;;;0.00;0.00;;;18.60;57.50;;;;;;4196446;28;20499;-41
2021/01/19 09:07:12;;;;;;;;;;;18.60;57.60;;;;;;4190148;28;20052;-41
2021/01/19 09:09:34;;;;;;;;;;;18.40;58.00;;;;;;4197059;28;19975;-41
2021/01/19 09:11:56;;;;;;;0.00;0.00;;;18.30;58.30;;;;;;4197229;28;19962;-41
2021/01/19 09:14:24;;;;;;;0.00;0.00;;;18.10;58.60;;;;;;4180467;28;20048;-41
2021/01/19 09:16:49;;;;;;;0.00;0.00;;;18.20;58.60;;;;;;4182926;28;20056;-41
2021/01/19 09:19:11;;;;;;;0.20;0.20;;;18.30;58.40;;;;;;4194681;28;20045;-40
2021/01/19 09:21:33;;;;;;;0.20;0.20;;;18.30;58.30;;;;;;4196860;28;20056;-41
2021/01/19 09:23:54;;;;;;;0.00;0.00;;;18.30;58.20;;;;;;4196919;28;20063;-40
2021/01/19 09:26:15;;;;;;;0.00;0.00;;;18.20;58.40;;;;;;4197004;28;20611;-41
2021/01/19 09:28:37;;;;;;;0.00;0.00;;;18.10;58.60;;;;;;4197001;28;20084;-40
2021/01/19 09:31:09;;;;;;;1.13;0.25;;;18.00;59.00;;;;;;4196579;28;20191;-41
2021/01/19 09:33:31;;;;;;;0.00;0.00;;;18.00;59.40;;;;;;4196670;28;20414;-42
2021/01/19 09:35:53;;;;;;;0.00;0.00;;;17.90;59.60;;;;;;4196278;28;20053;-41
2021/01/19 09:38:17;;;;;;;2.17;0.80;;;17.80;59.80;;;;;;4197156;28;20057;-42
2021/01/19 09:40:38;;;;;;;0.82;0.82;;;17.60;60.10;;;;;;4195926;28;20056;-41
2021/01/19 09:43:05;;;;;;;0.20;0.20;;;17.60;60.50;;;;;;4196925;28;20052;-44
2021/01/19 09:45:27;;;;;;;0.65;0.65;;;17.60;60.60;;;;;;4196473;28;20056;-39
2021/01/19 09:47:54;;;;;;;3.55;1.40;;;17.70;60.20;;;;;;4196134;28;20754;-41
2021/01/19 09:50:15;;;;;;;0.10;0.10;;;18.00;59.80;;;;;;4196405;28;20049;-40
2021/01/19 09:52:36;;;;;;;0.10;0.10;;;18.10;59.30;;;;;;4195778;28;20052;-40
2021/01/19 09:55:11;;;;;;;0.00;0.00;;;18.20;59.30;;;;;;4192068;28;20130;-41
2021/01/19 09:57:32;;;;;;;0.65;0.65;;;18.00;59.50;;;;;;4196041;28;20052;-41
2021/01/19 09:59:52;;;;;;;0.00;0.00;;;18.00;59.90;;;;;;4196322;28;20052;-40
2021/01/19 10:02:14;;;;;;;0.20;0.20;;;17.80;60.30;;;;;;4196669;28;20520;-41
2021/01/19 10:04:35;;;;;;;2.33;2.10;;;17.80;60.90;;;;;;4196453;28;20055;-40
2021/01/19 10:07:04;;;;;;;2.65;2.38;;;17.80;61.40;;;;;;4195869;28;20058;-41
2021/01/19 10:09:25;;;;;;;1.67;1.38;;;17.90;61.30;;;;;;4195561;28;20048;-40
2021/01/19 10:11:46;;;;;;;3.30;1.23;;;18.00;61.30;;;;;;4192934;28;20052;-41
2021/01/19 10:14:14;;;;;;;3.13;2.95;;;18.00;60.40;;;;;;4195697;28;20445;-41
2021/01/19 10:16:35;;;;;;;2.45;2.35;;;17.90;60.30;;;;;;4195914;28;20056;-40
2021/01/19 10:19:00;;;;;;;1.33;1.33;;;17.90;60.40;;;;;;4195953;28;20127;-41
2021/01/19 10:21:30;;;;;;;0.00;0.00;;;18.00;60.30;;;;;;4179393;28;20506;-40
2021/01/19 10:23:55;;;;;;;4.80;2.85;;;18.00;60.30;;;;;;4196166;28;20801;-40
2021/01/19 10:26:16;;;;;;;1.55;1.45;;;17.90;60.50;;;;;;4196406;28;20070;-41
2021/01/19 10:28:42;;;;;;;0.22;0.22;;;17.90;60.60;;;;;;4195366;28;20053;-41
2021/01/19 10:31:15;;;;;;;0.00;0.00;;;17.90;60.60;;;;;;4195323;28;20045;-41
2021/01/19 10:33:40;;;;;;;0.82;0.82;;;17.90;60.60;;;;;;4195799;28;20114;-41
2021/01/19 10:36:07;;;;;;;0.05;0.05;;;17.80;61.00;;;;;;4183946;28;20479;-40
2021/01/19 10:38:28;;;;;;;1.85;1.75;;;17.80;61.30;;;;;;4189362;28;20060;-42
2021/01/19 10:40:49;;;;;;;0.30;0.30;;;17.90;60.90;;;;;;4192614;28;20102;-40
2021/01/19 10:43:10;;;;;;;;;;;18.10;60.50;;;;;;4186949;28;20396;-41
2021/01/19 10:45:32;;;;;;;2.83;2.65;;;18.10;60.00;;;;;;4189699;28;19924;-39
2021/01/19 10:47:54;;;;;;;;;;;18.10;60.10;;;;;;4195871;28;20044;-41
2021/01/19 10:50:18;;;;;;;0.00;0.00;;;18.10;60.10;;;;;;4195878;28;20014;-40
2021/01/19 10:52:41;;;;;;;0.00;0.00;;;18.10;60.30;;;;;;4195644;28;20048;-40
2021/01/19 10:55:03;;;;;;;1.58;1.48;;;18.10;60.40;;;;;;4191868;28;20060;-41
2021/01/19 10:57:24;;;;;;;0.20;0.20;;;18.00;60.70;;;;;;4189760;28;20074;-41
2021/01/19 10:59:46;;;;;;;0.98;0.98;;;17.90;61.00;;;;;;4195704;28;20048;-41
2021/01/19 11:02:08;;;;;;;0.30;0.30;;;17.80;61.50;;;;;;4195512;28;20075;-43
2021/01/19 11:04:30;;;;;;;2.13;1.35;;;17.80;61.70;;;;;;4195403;28;20106;-40
2021/01/19 11:06:50;;;;;;;0.10;0.10;;;17.90;61.60;;;;;;4193629;28;20054;-41
2021/01/19 11:09:12;;;;;;;0.10;0.10;;;17.90;61.30;;;;;;4190544;28;20139;-40
2021/01/19 11:11:35;;;;;;;0.20;0.20;;;17.90;61.50;;;;;;4195535;28;20056;-43
2021/01/19 11:14:03;;;;;;;0.10;0.10;;;17.80;61.60;;;;;;4185389;28;20048;-42
2021/01/19 11:16:28;;;;;;;3.28;2.90;;;17.80;62.00;;;;;;4195300;28;20277;-44
2021/01/19 11:18:49;;;;;;;1.10;1.00;;;17.70;62.30;;;;;;4195207;28;20071;-43
2021/01/19 11:21:11;;;;;;;0.00;0.00;;;17.70;62.50;;;;;;4195337;28;20063;-41
2021/01/19 11:23:32;;;;;;;0.57;0.57;;;17.70;62.40;;;;;;4195214;28;20108;-41
2021/01/19 11:25:54;;;;;;;0.10;0.10;;;17.70;62.50;;;;;;4195385;28;20539;-41
2021/01/19 11:28:15;;;;;;;0.30;0.30;;;17.70;62.40;;;;;;4195424;28;20052;-43
2021/01/19 11:30:36;;;;;;;0.47;0.47;;;17.70;62.10;;;;;;4195207;28;20052;-43
2021/01/19 11:32:56;;;;;;;0.35;0.35;;;17.70;62.10;;;;;;4197157;28;20101;-41
2021/01/19 11:35:18;;;;;;;0.10;0.10;;;17.70;62.20;;;;;;4199132;28;20055;-42
2021/01/19 11:37:39;;;;;;;0.00;0.00;;;17.60;62.50;;;;;;4198373;28;20052;-41
2021/01/19 11:40:00;;;;;;;0.22;0.22;;;17.50;62.80;;;;;;4198399;28;20483;-41
2021/01/19 11:42:22;;;;;;;1.75;1.35;;;17.40;63.10;;;;;;4198380;28;20068;-41
2021/01/19 11:44:43;;;;;;;0.88;0.80;;;17.30;63.40;;;;;;4198413;28;20048;-40
2021/01/19 11:47:04;;;;;;;16.80;1.38;;;17.20;63.90;;;;;;4198764;28;20449;-41
2021/01/19 11:49:39;;;;;;;1.13;1.13;;;17.10;64.10;;;;;;4198291;28;20062;-41
2021/01/19 11:51:59;;;;;;;0.20;0.20;;;17.00;64.60;;;;;;4198232;28;20058;-42
2021/01/19 11:54:20;;;;;;;0.47;0.47;;;16.90;64.90;;;;;;4198565;28;20060;-42
2021/01/19 11:56:43;;;;;;;0.03;0.03;;;16.80;65.30;;;;;;4183926;28;20056;-42
2021/01/19 11:59:05;;;;;;;1.08;0.13;;;16.80;66.50;;;;;;4196933;28;20056;-50
2021/01/19 12:01:26;;;;;;;0.00;0.00;;;16.80;65.50;;;;;;4192276;28;20127;-40
2021/01/19 12:03:48;;;;;;;0.60;0.60;;;16.90;65.60;;;;;;4194103;28;20063;-39
2021/01/19 12:06:09;;;;;;;0.00;0.00;;;16.90;65.60;;;;;;4182121;28;20053;-40
2021/01/19 12:08:30;;;;;;;;;;;16.90;65.90;;;;;;4198021;28;20052;-40
2021/01/19 12:10:51;;;;;;;0.10;0.10;;;16.90;66.20;;;;;;4195251;28;20037;-40
2021/01/19 12:13:13;;;;;;;;;;;16.90;66.60;;;;;;4197045;28;20617;-40
2021/01/19 12:15:35;;;;;;;0.25;0.25;;;17.00;66.50;;;;;;4197668;28;19932;-39
2021/01/19 12:17:55;;;;;;;0.00;0.00;;;17.20;66.40;;;;;;4197919;28;20057;-40
2021/01/19 12:20:17;;;;;;;0.00;0.00;;;17.30;66.10;;;;;;4196856;28;20052;-39
2021/01/19 12:22:40;;;;;;;0.20;0.20;;;17.30;65.80;;;;;;4196607;28;20060;-39
2021/01/19 12:25:01;;;;;;;0.00;0.00;;;17.40;65.90;;;;;;4181634;28;20426;-41
2021/01/19 12:27:22;;;;;;;;;;;17.40;65.90;;;;;;4189153;28;20101;-39
2021/01/19 12:29:43;;;;;;;0.00;0.00;;;17.40;65.90;;;;;;4181162;28;19931;-40
2021/01/19 12:32:10;;;;;;;0.00;0.00;;;17.40;65.90;;;;;;4190396;28;20048;-42